Observation data for Morton on 01/13/2018      Previous  Date  Next       Current Mesonet Observations  Soil Data  Daily Summary Page  Observations in Plain Language
KMNS 130600Z 06007KT M00/M13 A3038 RMK A01 T10021132  RH  037%=      5-min Rain = 0
KMNS 130605Z 06009KT M00/M13 A3038 RMK A01 T10021132  RH  037%=      5-min Rain = 0
KMNS 130610Z 06009KT M00/M13 A3038 RMK A01 T10021133  RH  037%=      5-min Rain = 0
KMNS 130615Z 07009KT M00/M13 A3039 RMK A01 T10021133  RH  037%=      5-min Rain = 0
KMNS 130620Z 07008KT M00/M13 A3039 RMK A01 T10031133  RH  037%=      5-min Rain = 0
KMNS 130625Z 07007KT M01/M13 A3039 RMK A01 T10061134  RH  038%=      5-min Rain = 0
KMNS 130630Z 07007KT M01/M14 A3039 RMK A01 T10091135  RH  038%=      5-min Rain = 0
KMNS 130635Z 07006KT M01/M14 A3039 RMK A01 T10131136  RH  039%=      5-min Rain = 0
KMNS 130640Z 08006KT M02/M14 A3039 RMK A01 T10161136  RH  040%=      5-min Rain = 0
KMNS 130645Z 08004KT M02/M14 A3039 RMK A01 T10201136  RH  041%=      5-min Rain = 0
KMNS 130650Z 09003KT M02/M14 A3039 RMK A01 T10221137  RH  042%=      5-min Rain = 0
KMNS 130655Z 08002KT M02/M14 A3039 RMK A01 T10231137  RH  042%=      5-min Rain = 0
KMNS 130700Z 09002KT M02/M14 A3039 RMK A01 T10241137  RH  042%=      5-min Rain = 0
KMNS 130705Z 07002KT M02/M14 A3039 RMK A01 T10241137  RH  042%=      5-min Rain = 0
KMNS 130710Z 07002KT M02/M14 A304 RMK A01 T10241137  RH  042%=      5-min Rain = 0
KMNS 130715Z 05003KT M02/M14 A304 RMK A01 T10241138  RH  042%=      5-min Rain = 0
KMNS 130720Z 03003KT M03/M15 A3039 RMK A01 T10331145  RH  042%=      5-min Rain = 0
KMNS 130725Z 02004KT M04/M14 A304 RMK A01 T10371144  RH  044%=      5-min Rain = 0
KMNS 130730Z 01004KT M04/M14 A304 RMK A01 T10381144  RH  044%=      5-min Rain = 0
KMNS 130735Z 02003KT M04/M15 A304 RMK A01 T10411145  RH  045%=      5-min Rain = 0
KMNS 130740Z 01003KT M05/M15 A304 RMK A01 T10461145  RH  046%=      5-min Rain = 0
KMNS 130745Z 36003KT M05/M14 A304 RMK A01 T10471144  RH  048%=      5-min Rain = 0
KMNS 130750Z 35001KT M05/M14 A3039 RMK A01 T10471142  RH  048%=      5-min Rain = 0
KMNS 130755Z 20001KT M05/M15 A3038 RMK A01 T10501146  RH  047%=      5-min Rain = 0
KMNS 130800Z 18001KT M06/M15 A3038 RMK A01 T10611151  RH  050%=      5-min Rain = 0
KMNS 130805Z 02003KT M06/M15 A3039 RMK A01 T10581148  RH  050%=      5-min Rain = 0
KMNS 130810Z 01005KT M06/M15 A3039 RMK A01 T10551149  RH  048%=      5-min Rain = 0
KMNS 130815Z 01005KT M06/M15 A304 RMK A01 T10561150  RH  048%=      5-min Rain = 0
KMNS 130820Z 02005KT M06/M15 A304 RMK A01 T10561149  RH  048%=      5-min Rain = 0
KMNS 130825Z 01006KT M06/M15 A3041 RMK A01 T10551150  RH  048%=      5-min Rain = 0
KMNS 130830Z 01006KT M05/M15 A3041 RMK A01 T10541148  RH  048%=      5-min Rain = 0
KMNS 130835Z 00005KT M05/M15 A3041 RMK A01 T10541147  RH  049%=      5-min Rain = 0
KMNS 130840Z 35005KT M06/M15 A3041 RMK A01 T10561148  RH  049%=      5-min Rain = 0
KMNS 130845Z 34005KT M06/M15 A3041 RMK A01 T10581146  RH  050%=      5-min Rain = 0
KMNS 130850Z 34005KT M06/M15 A3041 RMK A01 T10581145  RH  051%=      5-min Rain = 0
KMNS 130855Z 33004KT M06/M15 A3041 RMK A01 T10581146  RH  051%=      5-min Rain = 0
KMNS 130900Z 31004KT M06/M15 A3041 RMK A01 T10581145  RH  051%=      5-min Rain = 0
KMNS 130905Z 31004KT M06/M15 A3042 RMK A01 T10581146  RH  051%=      5-min Rain = 0
KMNS 130910Z 31003KT M06/M15 A3041 RMK A01 T10591145  RH  052%=      5-min Rain = 0
KMNS 130915Z 31003KT M06/M15 A3041 RMK A01 T10601145  RH  052%=      5-min Rain = 0
KMNS 130920Z 31003KT M06/M14 A3041 RMK A01 T10611144  RH  053%=      5-min Rain = 0
KMNS 130925Z 33005KT M06/M15 A3041 RMK A01 T10601146  RH  051%=      5-min Rain = 0
KMNS 130930Z 33005KT M06/M15 A3042 RMK A01 T10611150  RH  050%=      5-min Rain = 0
KMNS 130935Z 32006KT M06/M15 A3042 RMK A01 T10631150  RH  051%=      5-min Rain = 0
KMNS 130940Z 33006KT M06/M15 A3042 RMK A01 T10621148  RH  051%=      5-min Rain = 0
KMNS 130945Z 32005KT M06/M15 A3043 RMK A01 T10611149  RH  051%=      5-min Rain = 0
KMNS 130950Z 32006KT M07/M15 A3043 RMK A01 T10651152  RH  051%=      5-min Rain = 0
KMNS 130955Z 32005KT M07/M15 A3043 RMK A01 T10681152  RH  052%=      5-min Rain = 0
KMNS 131000Z 33005KT M07/M15 A3043 RMK A01 T10671152  RH  052%=      5-min Rain = 0
KMNS 131005Z 33005KT M07/M15 A3043 RMK A01 T10661152  RH  051%=      5-min Rain = 0
KMNS 131010Z 34005KT M07/M15 A3042 RMK A01 T10671154  RH  051%=      5-min Rain = 0
KMNS 131015Z 34004KT M07/M15 A3042 RMK A01 T10691154  RH  052%=      5-min Rain = 0
KMNS 131020Z 32003KT M07/M15 A3042 RMK A01 T10701153  RH  052%=      5-min Rain = 0
KMNS 131025Z 31003KT M07/M16 A3042 RMK A01 T10701155  RH  052%=      5-min Rain = 0
KMNS 131030Z 32004KT M07/M15 A3042 RMK A01 T10681153  RH  052%=      5-min Rain = 0
KMNS 131035Z 33005KT M07/M15 A3043 RMK A01 T10691154  RH  052%=      5-min Rain = 0
KMNS 131040Z 32005KT M07/M16 A3043 RMK A01 T10711155  RH  052%=      5-min Rain = 0
KMNS 131045Z 31006KT M07/M15 A3043 RMK A01 T10731154  RH  053%=      5-min Rain = 0
KMNS 131050Z 32008KT M07/M15 A3043 RMK A01 T10691151  RH  053%=      5-min Rain = 0
KMNS 131055Z 33006KT M07/M15 A3044 RMK A01 T10681153  RH  052%=      5-min Rain = 0
KMNS 131100Z 34005KT M07/M15 A3044 RMK A01 T10711153  RH  052%=      5-min Rain = 0
KMNS 131105Z 33005KT M07/M15 A3044 RMK A01 T10721152  RH  054%=      5-min Rain = 0
KMNS 131110Z 34006KT M07/M15 A3044 RMK A01 T10731151  RH  055%=      5-min Rain = 0
KMNS 131115Z 34005KT M07/M15 A3044 RMK A01 T10721150  RH  055%=      5-min Rain = 0
KMNS 131120Z 33004KT M07/M15 A3044 RMK A01 T10721149  RH  055%=      5-min Rain = 0
KMNS 131125Z 32004KT M07/M15 A3044 RMK A01 T10701147  RH  055%=      5-min Rain = 0
KMNS 131130Z 31004KT M07/M15 A3044 RMK A01 T10691147  RH  055%=      5-min Rain = 0
KMNS 131135Z 31004KT M07/M15 A3044 RMK A01 T10691147  RH  055%=      5-min Rain = 0
KMNS 131140Z 29004KT M07/M15 A3043 RMK A01 T10741152  RH  055%=      5-min Rain = 0
KMNS 131145Z 29003KT M08/M15 A3043 RMK A01 T10761152  RH  056%=      5-min Rain = 0
KMNS 131150Z 27002KT M08/M16 A3043 RMK A01 T10801158  RH  055%=      5-min Rain = 0
KMNS 131155Z 26003KT M08/M16 A3044 RMK A01 T10841161  RH  055%=      5-min Rain = 0
KMNS 131200Z 26005KT M09/M16 A3044 RMK A01 T10871161  RH  056%=      5-min Rain = 0
KMNS 131205Z 26004KT M09/M16 A3044 RMK A01 T10851157  RH  057%=      5-min Rain = 0
KMNS 131210Z 27004KT M08/M16 A3044 RMK A01 T10841155  RH  057%=      5-min Rain = 0
KMNS 131215Z 28004KT M08/M15 A3044 RMK A01 T10841154  RH  058%=      5-min Rain = 0
KMNS 131220Z 28004KT M08/M15 A3045 RMK A01 T10831153  RH  058%=      5-min Rain = 0
KMNS 131225Z 27003KT M08/M15 A3045 RMK A01 T10831152  RH  058%=      5-min Rain = 0
KMNS 131230Z 27003KT M08/M15 A3045 RMK A01 T10821152  RH  058%=      5-min Rain = 0
KMNS 131235Z 27004KT M08/M15 A3045 RMK A01 T10821153  RH  057%=      5-min Rain = 0
KMNS 131240Z 26004KT M09/M16 A3046 RMK A01 T10851156  RH  057%=      5-min Rain = 0
KMNS 131245Z 26004KT M08/M15 A3046 RMK A01 T10831153  RH  058%=      5-min Rain = 0
KMNS 131250Z 27004KT M08/M15 A3046 RMK A01 T10801150  RH  058%=      5-min Rain = 0
KMNS 131255Z 27004KT M08/M15 A3046 RMK A01 T10791148  RH  058%=      5-min Rain = 0
KMNS 131300Z 26004KT M08/M15 A3046 RMK A01 T10781147  RH  058%=      5-min Rain = 0
KMNS 131305Z 25004KT M08/M15 A3046 RMK A01 T10801150  RH  058%=      5-min Rain = 0
KMNS 131310Z 25004KT M08/M15 A3047 RMK A01 T10801150  RH  058%=      5-min Rain = 0
KMNS 131315Z 27004KT M08/M15 A3047 RMK A01 T10821150  RH  059%=      5-min Rain = 0
KMNS 131320Z 27004KT M08/M15 A3047 RMK A01 T10801148  RH  059%=      5-min Rain = 0
KMNS 131325Z 27004KT M08/M15 A3047 RMK A01 T10801147  RH  060%=      5-min Rain = 0
KMNS 131330Z 27004KT M08/M15 A3047 RMK A01 T10811149  RH  059%=      5-min Rain = 0
KMNS 131335Z 26004KT M08/M15 A3047 RMK A01 T10831151  RH  059%=      5-min Rain = 0
KMNS 131340Z 26004KT M09/M15 A3047 RMK A01 T10851153  RH  059%=      5-min Rain = 0
KMNS 131345Z 26004KT M09/M15 A3048 RMK A01 T10851153  RH  059%=      5-min Rain = 0
KMNS 131350Z 26004KT M09/M15 A3048 RMK A01 T10861153  RH  059%=      5-min Rain = 0
KMNS 131355Z 27004KT M08/M15 A3048 RMK A01 T10841153  RH  059%=      5-min Rain = 0
KMNS 131400Z 28004KT M08/M15 A3048 RMK A01 T10841152  RH  059%=      5-min Rain = 0
KMNS 131405Z 28004KT M09/M15 A3048 RMK A01 T10861151  RH  060%=      5-min Rain = 0
KMNS 131410Z 28004KT M08/M15 A3049 RMK A01 T10841148  RH  061%=      5-min Rain = 0
KMNS 131415Z 28004KT M08/M15 A3048 RMK A01 T10821146  RH  061%=      5-min Rain = 0
KMNS 131420Z 29003KT M08/M14 A3049 RMK A01 T10781143  RH  060%=      5-min Rain = 0
KMNS 131425Z 28003KT M07/M14 A3049 RMK A01 T10731141  RH  059%=      5-min Rain = 0
KMNS 131430Z 28003KT M07/M14 A3049 RMK A01 T10701141  RH  058%=      5-min Rain = 0
KMNS 131435Z 28003KT M07/M14 A3049 RMK A01 T10681143  RH  056%=      5-min Rain = 0
KMNS 131440Z 28003KT M07/M14 A305 RMK A01 T10651141  RH  056%=      5-min Rain = 0
KMNS 131445Z 27002KT M06/M14 A305 RMK A01 T10611139  RH  055%=      5-min Rain = 0
KMNS 131450Z 27002KT M06/M14 A305 RMK A01 T10581141  RH  053%=      5-min Rain = 0
KMNS 131455Z 28002KT M06/M14 A3051 RMK A01 T10561140  RH  052%=      5-min Rain = 0
KMNS 131500Z 28003KT M05/M14 A3051 RMK A01 T10521138  RH  052%=      5-min Rain = 0
KMNS 131505Z 29002KT M05/M14 A3051 RMK A01 T10491137  RH  051%=      5-min Rain = 0
KMNS 131510Z 31002KT M04/M14 A3052 RMK A01 T10441137  RH  049%=      5-min Rain = 0
KMNS 131515Z 32002KT M04/M14 A3052 RMK A01 T10391135  RH  048%=      5-min Rain = 0
KMNS 131520Z 33002KT M04/M14 A3052 RMK A01 T10361135  RH  047%=      5-min Rain = 0
KMNS 131525Z 34001KT M03/M13 A3052 RMK A01 T10301132  RH  046%=      5-min Rain = 0
KMNS 131530Z 01001KT M02/M13 A3052 RMK A01 T10221131  RH  044%=      5-min Rain = 0
KMNS 131535Z 02002KT M02/M13 A3052 RMK A01 T10191131  RH  043%=      5-min Rain = 0
KMNS 131540Z 02002KT M02/M13 A3052 RMK A01 T10151130  RH  042%=      5-min Rain = 0
KMNS 131545Z 05002KT M01/M13 A3052 RMK A01 T10131132  RH  041%=      5-min Rain = 0
KMNS 131550Z 06001KT M01/M13 A3052 RMK A01 T10101133  RH  039%=      5-min Rain = 0
KMNS 131555Z 07002KT M01/M13 A3052 RMK A01 T10091133  RH  039%=      5-min Rain = 0
KMNS 131600Z 07002KT M01/M13 A3052 RMK A01 T10061132  RH  039%=      5-min Rain = 0
KMNS 131605Z 09002KT M00/M13 A3052 RMK A01 T10031131  RH  038%=      5-min Rain = 0
KMNS 131610Z 10001KT 00/M13 A3052 RMK A01 T00021131  RH  036%=      5-min Rain = 0
KMNS 131615Z 12002KT 01/M13 A3052 RMK A01 T00051131  RH  036%=      5-min Rain = 0
KMNS 131620Z 12002KT 01/M13 A3052 RMK A01 T00091131  RH  035%=      5-min Rain = 0
KMNS 131625Z 11002KT 01/M13 A3052 RMK A01 T00091132  RH  034%=      5-min Rain = 0
KMNS 131630Z 12002KT 01/M13 A3052 RMK A01 T00111131  RH  034%=      5-min Rain = 0
KMNS 131635Z 13003KT 01/M13 A3053 RMK A01 T00131131  RH  034%=      5-min Rain = 0
KMNS 131640Z 13002KT 02/M13 A3053 RMK A01 T00151131  RH  033%=      5-min Rain = 0
KMNS 131645Z 15002KT 02/M13 A3054 RMK A01 T00161133  RH  033%=      5-min Rain = 0
KMNS 131650Z 13002KT 02/M13 A3053 RMK A01 T00181131  RH  033%=      5-min Rain = 0
KMNS 131655Z 15003KT 02/M13 A3053 RMK A01 T00221131  RH  032%=      5-min Rain = 0
KMNS 131700Z 12003KT 02/M13 A3052 RMK A01 T00211132  RH  032%=      5-min Rain = 0
KMNS 131705Z 14004KT 02/M13 A3052 RMK A01 T00231131  RH  031%=      5-min Rain = 0
KMNS 131710Z 13003KT 02/M13 A3052 RMK A01 T00241131  RH  031%=      5-min Rain = 0
KMNS 131715Z 14005KT 03/M13 A3052 RMK A01 T00281130  RH  031%=      5-min Rain = 0
KMNS 131720Z 15004KT 03/M13 A3052 RMK A01 T00281130  RH  031%=      5-min Rain = 0
KMNS 131725Z 16005KT 03/M13 A3052 RMK A01 T00341129  RH  030%=      5-min Rain = 0
KMNS 131730Z 16006KT 04/M13 A3051 RMK A01 T00371129  RH  029%=      5-min Rain = 0
KMNS 131735Z 17006KT 04/M13 A3051 RMK A01 T00401128  RH  029%=      5-min Rain = 0
KMNS 131740Z 18006KT 04/M13 A3051 RMK A01 T00411129  RH  028%=      5-min Rain = 0
KMNS 131745Z 16006KT 04/M13 A305 RMK A01 T00441128  RH  028%=      5-min Rain = 0
KMNS 131750Z 14007KT 05/M13 A305 RMK A01 T00481128  RH  027%=      5-min Rain = 0
KMNS 131755Z 16006KT 05/M13 A305 RMK A01 T00471128  RH  027%=      5-min Rain = 0
KMNS 131800Z 16007KT 06/M13 A305 RMK A01 T00551126  RH  026%=      5-min Rain = 0
KMNS 131805Z 16006KT 06/M13 A305 RMK A01 T00591126  RH  025%=      5-min Rain = 0
KMNS 131810Z 17008KT 07/M13 A3049 RMK A01 T00651125  RH  025%=      5-min Rain = 0
KMNS 131815Z 17008KT 07/M13 A3049 RMK A01 T00651126  RH  024%=      5-min Rain = 0
KMNS 131820Z 17005G10KT 07/M13 A3048 RMK A01 T00681125  RH  024%=      5-min Rain = 0
KMNS 131825Z 18008G13KT 07/M13 A3048 RMK A01 T00711125  RH  024%=      5-min Rain = 0
KMNS 131830Z 17008KT 07/M13 A3048 RMK A01 T00731125  RH  023%=      5-min Rain = 0
KMNS 131835Z 16008G14KT 07/M13 A3047 RMK A01 T00731126  RH  023%=      5-min Rain = 0
KMNS 131840Z 17008KT 07/M13 A3047 RMK A01 T00731126  RH  023%=      5-min Rain = 0
KMNS 131845Z 18009KT 07/M13 A3046 RMK A01 T00721125  RH  023%=      5-min Rain = 0
KMNS 131850Z 19010KT 08/M12 A3046 RMK A01 T00791121  RH  023%=      5-min Rain = 0
KMNS 131855Z 18011KT 08/M12 A3045 RMK A01 T00781123  RH  023%=      5-min Rain = 0
KMNS 131900Z 17010KT 08/M12 A3045 RMK A01 T00801123  RH  023%=      5-min Rain = 0
KMNS 131905Z 17009G14KT 08/M12 A3044 RMK A01 T00831123  RH  022%=      5-min Rain = 0
KMNS 131910Z 18010KT 08/M12 A3044 RMK A01 T00831123  RH  022%=      5-min Rain = 0
KMNS 131915Z 17010G15KT 09/M12 A3043 RMK A01 T00871122  RH  022%=      5-min Rain = 0
KMNS 131920Z 17009KT 09/M12 A3043 RMK A01 T00851122  RH  022%=      5-min Rain = 0
KMNS 131925Z 18011KT 09/M12 A3042 RMK A01 T00861120  RH  022%=      5-min Rain = 0
KMNS 131930Z 19011KT 09/M12 A3042 RMK A01 T00861119  RH  022%=      5-min Rain = 0
KMNS 131935Z 18011G16KT 09/M12 A3041 RMK A01 T00891120  RH  022%=      5-min Rain = 0
KMNS 131940Z 18011KT 09/M12 A3041 RMK A01 T00891119  RH  022%=      5-min Rain = 0
KMNS 131945Z 18012KT 09/M12 A304 RMK A01 T00901119  RH  022%=      5-min Rain = 0
KMNS 131950Z 19011KT 09/M12 A304 RMK A01 T00911119  RH  022%=      5-min Rain = 0
KMNS 131955Z 17011G16KT 09/M12 A304 RMK A01 T00931119  RH  021%=      5-min Rain = 0
KMNS 132000Z 19014G19KT 10/M12 A3039 RMK A01 T00981117  RH  021%=      5-min Rain = 0
KMNS 132005Z 19011KT 10/M12 A3039 RMK A01 T00991117  RH  021%=      5-min Rain = 0
KMNS 132010Z 17014KT 10/M12 A3038 RMK A01 T00991118  RH  021%=      5-min Rain = 0
KMNS 132015Z 18014KT 10/M12 A3038 RMK A01 T00971117  RH  021%=      5-min Rain = 0
KMNS 132020Z 18013G19KT 10/M12 A3037 RMK A01 T01001116  RH  021%=      5-min Rain = 0
KMNS 132025Z 19014KT 10/M12 A3037 RMK A01 T00991115  RH  021%=      5-min Rain = 0
KMNS 132030Z 18013KT 10/M12 A3037 RMK A01 T01001115  RH  021%=      5-min Rain = 0
KMNS 132035Z 18012KT 10/M12 A3037 RMK A01 T01021115  RH  021%=      5-min Rain = 0
KMNS 132040Z 18012G18KT 11/M12 A3037 RMK A01 T01061116  RH  020%=      5-min Rain = 0
KMNS 132045Z 18012G17KT 11/M12 A3037 RMK A01 T01061116  RH  020%=      5-min Rain = 0
KMNS 132050Z 19013KT 11/M12 A3036 RMK A01 T01051117  RH  020%=      5-min Rain = 0
KMNS 132055Z 18012KT 11/M12 A3036 RMK A01 T01061116  RH  020%=      5-min Rain = 0
KMNS 132100Z 19013KT 11/M12 A3036 RMK A01 T01081115  RH  020%=      5-min Rain = 0
KMNS 132105Z 18012G17KT 11/M12 A3036 RMK A01 T01071117  RH  020%=      5-min Rain = 0
KMNS 132110Z 17013G18KT 11/M12 A3035 RMK A01 T01071115  RH  020%=      5-min Rain = 0
KMNS 132115Z 18013G18KT 11/M11 A3035 RMK A01 T01081113  RH  020%=      5-min Rain = 0
KMNS 132120Z 18012KT 11/M11 A3035 RMK A01 T01061113  RH  021%=      5-min Rain = 0
KMNS 132125Z 18014KT 11/M11 A3035 RMK A01 T01061113  RH  021%=      5-min Rain = 0
KMNS 132130Z 19012KT 11/M11 A3035 RMK A01 T01071112  RH  021%=      5-min Rain = 0
KMNS 132135Z 19015KT 11/M11 A3034 RMK A01 T01061112  RH  021%=      5-min Rain = 0
KMNS 132140Z 18013KT 11/M11 A3034 RMK A01 T01051112  RH  021%=      5-min Rain = 0
KMNS 132145Z 18012G18KT 11/M11 A3034 RMK A01 T01071111  RH  021%=      5-min Rain = 0
KMNS 132150Z 18014KT 11/M11 A3033 RMK A01 T01061111  RH  021%=      5-min Rain = 0
KMNS 132155Z 18014KT 11/M11 A3033 RMK A01 T01081111  RH  021%=      5-min Rain = 0
KMNS 132200Z 18014G19KT 11/M11 A3033 RMK A01 T01071111  RH  021%=      5-min Rain = 0
KMNS 132205Z 17013KT 11/M11 A3033 RMK A01 T01071109  RH  021%=      5-min Rain = 0
KMNS 132210Z 18013G18KT 11/M11 A3033 RMK A01 T01071108  RH  021%=      5-min Rain = 0
KMNS 132215Z 18013KT 11/M11 A3033 RMK A01 T01061109  RH  021%=      5-min Rain = 0
KMNS 132220Z 17013KT 11/M11 A3032 RMK A01 T01061108  RH  021%=      5-min Rain = 0
KMNS 132225Z 18014KT 11/M11 A3032 RMK A01 T01051108  RH  022%=      5-min Rain = 0
KMNS 132230Z 18016KT 10/M11 A3032 RMK A01 T01041109  RH  021%=      5-min Rain = 0
KMNS 132235Z 18013KT 10/M11 A3032 RMK A01 T01031109  RH  022%=      5-min Rain = 0
KMNS 132240Z 18014G20KT 10/M11 A3032 RMK A01 T01031110  RH  021%=      5-min Rain = 0
KMNS 132245Z 18014KT 10/M11 A3032 RMK A01 T01021111  RH  021%=      5-min Rain = 0
KMNS 132250Z 18014G19KT 10/M11 A3032 RMK A01 T01001111  RH  022%=      5-min Rain = 0
KMNS 132255Z 18015KT 10/M11 A3032 RMK A01 T01001111  RH  022%=      5-min Rain = 0
KMNS 132300Z 18015KT 10/M11 A3032 RMK A01 T00981111  RH  022%=      5-min Rain = 0
KMNS 132305Z 17014KT 10/M11 A3032 RMK A01 T00961111  RH  022%=      5-min Rain = 0
KMNS 132310Z 18014KT 10/M11 A3031 RMK A01 T00961111  RH  022%=      5-min Rain = 0
KMNS 132315Z 18014KT 10/M11 A3031 RMK A01 T00951110  RH  023%=      5-min Rain = 0
KMNS 132320Z 18015KT 09/M11 A3031 RMK A01 T00941110  RH  023%=      5-min Rain = 0
KMNS 132325Z 18015KT 09/M11 A3031 RMK A01 T00921110  RH  023%=      5-min Rain = 0
KMNS 132330Z 18014KT 09/M11 A3031 RMK A01 T00911110  RH  023%=      5-min Rain = 0
KMNS 132335Z 18013G18KT 09/M11 A3031 RMK A01 T00891110  RH  024%=      5-min Rain = 0
KMNS 132340Z 18012G17KT 09/M11 A3031 RMK A01 T00871110  RH  024%=      5-min Rain = 0
KMNS 132345Z 18012KT 08/M11 A303 RMK A01 T00841111  RH  024%=      5-min Rain = 0
KMNS 132350Z 18012KT 08/M11 A303 RMK A01 T00831111  RH  024%=      5-min Rain = 0
KMNS 132355Z 17011KT 08/M11 A303 RMK A01 T00791111  RH  025%=      5-min Rain = 0
KMNS 140000Z 17011KT 08/M11 A303 RMK A01 T00761111  RH  025%=      5-min Rain = 0
KMNS 140005Z 17010KT 07/M11 A303 RMK A01 T00721112  RH  026%=      5-min Rain = 0
KMNS 140010Z 17009KT 07/M11 A303 RMK A01 T00701112  RH  026%=      5-min Rain = 0
KMNS 140015Z 17008KT 07/M11 A303 RMK A01 T00661114  RH  027%=      5-min Rain = 0
KMNS 140020Z 17009KT 06/M12 A303 RMK A01 T00641115  RH  027%=      5-min Rain = 0
KMNS 140025Z 17009KT 06/M12 A303 RMK A01 T00611115  RH  027%=      5-min Rain = 0
KMNS 140030Z 17008KT 06/M12 A303 RMK A01 T00591116  RH  028%=      5-min Rain = 0
KMNS 140035Z 17008KT 06/M12 A303 RMK A01 T00551116  RH  028%=      5-min Rain = 0
KMNS 140040Z 16007KT 05/M12 A303 RMK A01 T00541117  RH  028%=      5-min Rain = 0
KMNS 140045Z 16008KT 05/M12 A303 RMK A01 T00501117  RH  029%=      5-min Rain = 0
KMNS 140050Z 16007KT 05/M12 A303 RMK A01 T00471118  RH  029%=      5-min Rain = 0
KMNS 140055Z 16007KT 05/M12 A303 RMK A01 T00461118  RH  030%=      5-min Rain = 0
KMNS 140100Z 16008KT 04/M12 A303 RMK A01 T00431118  RH  030%=      5-min Rain = 0
KMNS 140105Z 17009KT 04/M12 A303 RMK A01 T00421118  RH  031%=      5-min Rain = 0
KMNS 140110Z 17009KT 04/M12 A303 RMK A01 T00401119  RH  031%=      5-min Rain = 0
KMNS 140115Z 17010KT 04/M12 A303 RMK A01 T00381119  RH  031%=      5-min Rain = 0
KMNS 140120Z 17011KT 04/M12 A303 RMK A01 T00381119  RH  031%=      5-min Rain = 0
KMNS 140125Z 17011KT 04/M12 A303 RMK A01 T00391119  RH  031%=      5-min Rain = 0
KMNS 140130Z 17010KT 04/M12 A303 RMK A01 T00371119  RH  031%=      5-min Rain = 0
KMNS 140135Z 17011KT 04/M12 A303 RMK A01 T00361119  RH  032%=      5-min Rain = 0
KMNS 140140Z 17010G15KT 04/M12 A303 RMK A01 T00351119  RH  032%=      5-min Rain = 0
KMNS 140145Z 17010KT 03/M12 A303 RMK A01 T00341119  RH  032%=      5-min Rain = 0
KMNS 140150Z 17010KT 03/M12 A303 RMK A01 T00321120  RH  032%=      5-min Rain = 0
KMNS 140155Z 17010KT 03/M12 A303 RMK A01 T00321120  RH  032%=      5-min Rain = 0
KMNS 140200Z 17011KT 03/M12 A303 RMK A01 T00321121  RH  032%=      5-min Rain = 0
KMNS 140205Z 17011KT 03/M12 A303 RMK A01 T00321121  RH  032%=      5-min Rain = 0
KMNS 140210Z 17011KT 03/M12 A3029 RMK A01 T00311121  RH  032%=      5-min Rain = 0
KMNS 140215Z 17011KT 03/M12 A3029 RMK A01 T00311120  RH  032%=      5-min Rain = 0
KMNS 140220Z 17012KT 03/M12 A3029 RMK A01 T00321120  RH  032%=      5-min Rain = 0
KMNS 140225Z 17012KT 03/M12 A3029 RMK A01 T00321120  RH  032%=      5-min Rain = 0
KMNS 140230Z 17011KT 03/M12 A3029 RMK A01 T00301120  RH  033%=      5-min Rain = 0
KMNS 140235Z 17012G17KT 03/M12 A3029 RMK A01 T00301121  RH  033%=      5-min Rain = 0
KMNS 140240Z 17012KT 03/M12 A3029 RMK A01 T00281121  RH  033%=      5-min Rain = 0
KMNS 140245Z 17012KT 03/M12 A3029 RMK A01 T00261121  RH  033%=      5-min Rain = 0
KMNS 140250Z 18012KT 03/M12 A3029 RMK A01 T00261121  RH  033%=      5-min Rain = 0
KMNS 140255Z 18012KT 03/M12 A3029 RMK A01 T00261121  RH  033%=      5-min Rain = 0
KMNS 140300Z 17012G17KT 03/M12 A3029 RMK A01 T00251121  RH  034%=      5-min Rain = 0
KMNS 140305Z 17012KT 02/M12 A3029 RMK A01 T00241121  RH  034%=      5-min Rain = 0
KMNS 140310Z 17012KT 03/M12 A3029 RMK A01 T00251121  RH  034%=      5-min Rain = 0
KMNS 140315Z 18011G16KT 02/M12 A3029 RMK A01 T00231121  RH  034%=      5-min Rain = 0
KMNS 140320Z 18012KT 02/M12 A303 RMK A01 T00231121  RH  034%=      5-min Rain = 0
KMNS 140325Z 18011G17KT 02/M12 A303 RMK A01 T00231121  RH  034%=      5-min Rain = 0
KMNS 140330Z 18012KT 02/M12 A303 RMK A01 T00211122  RH  034%=      5-min Rain = 0
KMNS 140335Z 18013G18KT 02/M12 A303 RMK A01 T00191122  RH  035%=      5-min Rain = 0
KMNS 140340Z 18013KT 02/M12 A303 RMK A01 T00161122  RH  035%=      5-min Rain = 0
KMNS 140345Z 18012KT 02/M12 A3031 RMK A01 T00151122  RH  036%=      5-min Rain = 0
KMNS 140350Z 19011KT 01/M12 A303 RMK A01 T00121122  RH  037%=      5-min Rain = 0
KMNS 140355Z 19011KT 01/M12 A303 RMK A01 T00111122  RH  037%=      5-min Rain = 0
KMNS 140400Z 18013KT 01/M12 A303 RMK A01 T00111120  RH  037%=      5-min Rain = 0
KMNS 140405Z 18010KT 01/M12 A303 RMK A01 T00111121  RH  037%=      5-min Rain = 0
KMNS 140410Z 18010KT 01/M12 A303 RMK A01 T00091121  RH  038%=      5-min Rain = 0
KMNS 140415Z 18010KT 01/M12 A303 RMK A01 T00071122  RH  038%=      5-min Rain = 0
KMNS 140420Z 18010KT 01/M12 A303 RMK A01 T00061122  RH  038%=      5-min Rain = 0
KMNS 140425Z 18011KT 00/M12 A3029 RMK A01 T00041122  RH  039%=      5-min Rain = 0
KMNS 140430Z 18011KT 00/M12 A303 RMK A01 T00041122  RH  039%=      5-min Rain = 0
KMNS 140435Z 18012KT 01/M12 A3029 RMK A01 T00061121  RH  039%=      5-min Rain = 0
KMNS 140440Z 18012KT 01/M12 A3029 RMK A01 T00061121  RH  038%=      5-min Rain = 0
KMNS 140445Z 19013KT 01/M12 A3029 RMK A01 T00051121  RH  039%=      5-min Rain = 0
KMNS 140450Z 18014KT 01/M12 A3029 RMK A01 T00061121  RH  039%=      5-min Rain = 0
KMNS 140455Z 18014KT 01/M12 A3029 RMK A01 T00051121  RH  039%=      5-min Rain = 0
KMNS 140500Z 19013KT 00/M12 A3029 RMK A01 T00031121  RH  039%=      5-min Rain = 0
KMNS 140505Z 18013KT 00/M12 A3029 RMK A01 T00031121  RH  039%=      5-min Rain = 0
KMNS 140510Z 18013KT 00/M12 A3029 RMK A01 T00041120  RH  039%=      5-min Rain = 0
KMNS 140515Z 18013KT 01/M12 A3029 RMK A01 T00051119  RH  039%=      5-min Rain = 0
KMNS 140520Z 18012KT 01/M12 A3029 RMK A01 T00061119  RH  039%=      5-min Rain = 0
KMNS 140525Z 19013KT 01/M12 A3029 RMK A01 T00051119  RH  039%=      5-min Rain = 0
KMNS 140530Z 19012KT 00/M12 A3029 RMK A01 T00041119  RH  040%=      5-min Rain = 0
KMNS 140535Z 19012KT 01/M12 A303 RMK A01 T00071117  RH  039%=      5-min Rain = 0
KMNS 140540Z 19012KT 01/M12 A303 RMK A01 T00061117  RH  040%=      5-min Rain = 0
KMNS 140545Z 19012KT 01/M12 A303 RMK A01 T00061117  RH  040%=      5-min Rain = 0
KMNS 140550Z 19012KT 01/M12 A303 RMK A01 T00051117  RH  040%=      5-min Rain = 0
KMNS 140555Z 18012KT 01/M12 A303 RMK A01 T00051117  RH  040%=      5-min Rain = 0

Page generated in 0.009 seconds.